Grandes-Bergeronnes, Canada
Current Conditions -  °F | °C
As of 5:00 PM on Tuesday 21 Oct 2014 (Local Time) from CYYY Reporting Station
Few Clouds Few Clouds  
Wind Chill: 41°   Ceiling: Unl
Heat Index: 41°   Visibility: 30mi
Dew Point: 30°   Wind: 3mph
Humidity: 65%   Direction: 260°W
Pressure: 30.21"   Gusts: NA
Location:  48.25°N, 69.55°W
Report Text: CYYY 212100Z 26003KT 30SM FEW070 05/M01 A3021 RMK AC1 SLP232
Loading
Personal Weather Stations






























Interactive Weather Map
Tropical Storm Tracking
New forecast layout! Learn more

10-Day Weather Forecast

Advertisements
Track Severe Weather on mobile